Tabatinga Airport
SBTT : now visible

Airfield :











YOU CAN JOIN US ON...

 
LOGIN :

Register | Disclaimer

   EN    FR    IT 

 









Legend :    VFR   Marginal VFR   IFR   Intensive IFR   Very Intensive IFR
Visi :
Ceiling :
>= 8 km
>= 3000ft
5 to 8 km
1000 to 3000 ft
1500m to 5 km
500 to 1000 ft
800 to 1500m
200 to 500 ft
< 800m
< 200 ft
Symbols :   Thunderstorms  Fog  Heavy snow  Heavy precipitations  Wind > 20 kt






- Airport Elevation : 279 ft
- IATA code : TBT


SBTT - Tabatinga

CURRENT METAR :
  • 242300Z 16002KT 9999 FEW012 SCT090 24/22 Q1009

EXPIRED METARs :
  • 242200Z 12003KT 9999 FEW009 BKN090 24/22 Q1008
  • 242100Z 09005KT 9999 FEW010 SCT090 24/22 Q1008

TAF TAF SBTT
Valid from the 25 at 00:00 until the 26 at 00:00 UTC


242145Z 2500/2524 07005KT 9999 SCT020 TN25/2508Z TX32/2518Z
BECMG 2506/2508 36005KT
BECMG 2508/2510 32005KT
BECMG 2511/2513 12005KT FEW007
BECMG 2515/2517 28005KT SCT020
BECMG 2518/2520 34005KT
PROB30 2521/2523 TS SCT020 FEW030CB RMK PFV



MET'MAP, your aeronautical weather chart ! - Copyright ORBIFLY December 2007 - Disclaimer

ORBIFLY MET'MAP TEAM :

Programming & Development : Alexandra Zaïnal
Concept & original design : Baudouin d'Aumeries
Assistance for programming : Marc-Olivier Méhu
Technical & hardware support : Manuel Goepfert

Contact : metmap@orbifly.com




SOURCES & CREDITS :

   NOAA       Earth
Advisory